KR-0456 weather

21 Century City Building Heliport
Busan, Busan Gwang'yeogsi, South Korea

Public forecast

Using degrees Celsius for public forecast. Weather courtesy of forecast.io.

METAR (pilot weather report)

Closest report is Gimhae International Airport, 8.4 nm (15.5 km) WNW. Retrieved 2019/08/23 22:00 UTC (16 minutes ago):

RKPK 232200Z 36003KT 9000 NSC 22/19 Q1011

TAF (pilot weather forecast)

Closest forecast is Gimhae International Airport, 8.4 nm (15.5 km) WNW. Retrieved 2019/08/23 18:00 UTC (4 hours ago):

TAF RKPK 231700Z 2318/2424 33006KT 9999 SCT030 BKN200 TX29/2406Z TN23/2421Z BECMG 2402/2403 21010KT